createdAt,value
2019-03-09T00:02:21.362Z,6.80
2019-03-09T00:04:53.735Z,8.88
2019-03-09T00:07:26.201Z,11.14
2019-03-09T00:09:58.575Z,9.97
2019-03-09T00:12:30.946Z,8.88
2019-03-09T00:15:02.929Z,8.05
2019-03-09T00:17:35.796Z,7.42
2019-03-09T00:20:09.812Z,6.97
2019-03-09T00:22:43.725Z,8.43
2019-03-09T00:25:27.142Z,11.63
2019-03-09T00:28:07.099Z,10.38
2019-03-09T00:30:41.110Z,9.13
2019-03-09T00:33:13.028Z,8.26
2019-03-09T00:35:45.445Z,7.63
2019-03-09T00:38:17.816Z,7.19
2019-03-09T00:40:50.291Z,6.91
2019-03-09T00:43:22.671Z,10.05
2019-03-09T00:45:55.027Z,10.76
2019-03-09T00:48:27.407Z,9.49
2019-03-09T00:50:59.779Z,8.57
2019-03-09T00:53:32.450Z,7.87
2019-03-09T00:56:04.841Z,7.29
2019-03-09T00:58:37.200Z,6.87
2019-03-09T01:01:09.188Z,6.46
2019-03-09T01:03:41.545Z,9.17
2019-03-09T01:06:13.906Z,11.42
2019-03-09T01:08:46.271Z,10.14
2019-03-09T01:11:18.653Z,8.88
2019-03-09T01:13:51.029Z,8.09
2019-03-09T01:16:23.387Z,7.45
2019-03-09T01:18:55.313Z,7.00
2019-03-09T01:21:27.787Z,6.57
2019-03-09T01:24:00.103Z,8.76
2019-03-09T01:26:32.579Z,11.16
2019-03-09T01:29:04.947Z,9.98
2019-03-09T01:31:37.174Z,8.72
2019-03-09T01:34:09.493Z,7.95
2019-03-09T01:36:41.860Z,7.32
2019-03-09T01:39:14.227Z,6.84
2019-03-09T01:41:46.586Z,9.06
2019-03-09T01:44:19.282Z,11.68
2019-03-09T01:46:51.665Z,10.35
2019-03-09T01:49:24.032Z,9.16
2019-03-09T01:51:56.405Z,8.29
2019-03-09T01:54:28.760Z,7.67
2019-03-09T01:57:01.140Z,7.19
2019-03-09T01:59:33.512Z,7.25
2019-03-09T02:02:05.981Z,10.84
2019-03-09T02:04:38.353Z,11.25
2019-03-09T02:07:11.343Z,9.86
2019-03-09T02:09:43.712Z,8.88
2019-03-09T02:12:16.081Z,8.12
2019-03-09T02:14:48.461Z,7.57
2019-03-09T02:17:20.827Z,7.08
2019-03-09T02:19:53.096Z,6.80
2019-03-09T02:22:26.903Z,9.89
2019-03-09T02:24:59.170Z,11.63
2019-03-09T02:27:31.555Z,10.28
2019-03-09T02:30:03.942Z,9.19
2019-03-09T02:32:36.401Z,8.32
2019-03-09T02:35:17.364Z,7.76
2019-03-09T02:37:49.751Z,7.25
2019-03-09T02:40:23.721Z,7.84
2019-03-09T02:42:55.756Z,11.16
2019-03-09T02:45:31.356Z,10.52
2019-03-09T02:48:03.347Z,9.34
2019-03-09T02:50:37.227Z,8.51
2019-03-09T02:53:09.701Z,7.82
2019-03-09T02:55:41.629Z,7.36
2019-03-09T02:58:14.035Z,6.97
2019-03-09T03:00:47.927Z,9.34
2019-03-09T03:03:20.332Z,12.13
2019-03-09T03:05:52.697Z,10.95
2019-03-09T03:08:25.007Z,9.69
2019-03-09T03:10:57.343Z,8.80
2019-03-09T03:13:29.338Z,8.12
2019-03-09T03:16:01.662Z,7.60
2019-03-09T03:18:34.037Z,7.16
2019-03-09T03:21:06.416Z,9.35
2019-03-09T03:23:38.789Z,11.08
2019-03-09T03:26:11.163Z,9.97
2019-03-09T03:28:44.046Z,8.89
2019-03-09T03:31:16.214Z,8.15
2019-03-09T03:33:48.574Z,7.61
2019-03-09T03:36:20.975Z,7.84
2019-03-09T03:38:53.317Z,10.98
2019-03-09T03:41:25.760Z,10.49
2019-03-09T03:43:58.119Z,9.37
2019-03-09T03:46:32.190Z,8.60
2019-03-09T03:49:04.206Z,7.99
2019-03-09T03:51:36.521Z,7.50
2019-03-09T03:54:08.880Z,9.86
2019-03-09T03:56:41.260Z,11.67
2019-03-09T03:59:13.634Z,10.45
2019-03-09T04:01:46.001Z,9.48
2019-03-09T04:04:18.367Z,8.71
2019-03-09T04:06:50.752Z,8.15
2019-03-09T04:09:22.976Z,7.76
2019-03-09T04:11:55.129Z,8.25
2019-03-09T04:14:27.549Z,11.40
2019-03-09T04:16:59.820Z,10.88
2019-03-09T04:19:32.264Z,9.70
2019-03-09T04:22:04.703Z,8.91
2019-03-09T04:24:38.594Z,8.32
2019-03-09T04:27:12.071Z,7.82
2019-03-09T04:29:44.455Z,9.00
2019-03-09T04:32:16.817Z,12.31
2019-03-09T04:34:48.813Z,11.67
2019-03-09T04:37:21.150Z,10.35
2019-03-09T04:39:53.519Z,9.39
2019-03-09T04:42:25.894Z,8.69
2019-03-09T04:44:58.583Z,8.22
2019-03-09T04:47:32.479Z,7.85
2019-03-09T04:50:07.980Z,9.90
2019-03-09T04:52:40.306Z,11.81
2019-03-09T04:55:12.283Z,10.71
2019-03-09T04:57:44.637Z,9.56
2019-03-09T05:00:17.825Z,8.84
2019-03-09T05:02:49.784Z,8.29
2019-03-09T05:05:22.156Z,8.48
2019-03-09T05:08:19.447Z,11.71
2019-03-09T05:10:58.158Z,11.12
2019-03-09T05:13:36.538Z,9.90
2019-03-09T05:16:08.931Z,9.13
2019-03-09T05:18:41.298Z,8.51
2019-03-09T05:21:13.670Z,10.57
2019-03-09T05:23:46.044Z,12.26
2019-03-09T05:26:18.242Z,10.94
2019-03-09T05:28:50.675Z,9.92
2019-03-09T05:31:22.668Z,9.19
2019-03-09T05:33:55.110Z,8.62
2019-03-09T05:36:27.476Z,8.29
2019-03-09T05:39:00.511Z,11.43
2019-03-09T05:41:34.376Z,12.89
2019-03-09T05:44:06.293Z,11.53
2019-03-09T05:46:38.718Z,10.45
2019-03-09T05:49:13.027Z,9.55
2019-03-09T05:51:47.048Z,8.91
2019-03-09T05:54:20.076Z,8.37
2019-03-09T05:56:52.071Z,11.23
2019-03-09T05:59:24.460Z,12.87
2019-03-09T06:01:56.833Z,11.49
2019-03-09T06:04:28.972Z,10.36
2019-03-09T06:07:01.474Z,9.48
2019-03-09T06:09:33.848Z,8.85
2019-03-09T06:12:06.218Z,8.36
2019-03-09T06:14:38.603Z,10.36
2019-03-09T06:17:10.965Z,12.75
2019-03-09T06:19:43.347Z,11.49
2019-03-09T06:22:15.815Z,10.32
2019-03-09T06:24:48.391Z,9.51
2019-03-09T06:27:20.762Z,8.88
2019-03-09T06:29:53.778Z,8.37
2019-03-09T06:32:40.556Z,10.69
2019-03-09T06:35:24.701Z,12.71
2019-03-09T06:38:10.701Z,11.26
2019-03-09T06:40:43.070Z,10.07
2019-03-09T06:43:15.438Z,9.35
2019-03-09T06:45:47.808Z,8.78
2019-03-09T06:48:19.800Z,11.01
2019-03-09T06:50:53.589Z,12.59
2019-03-09T06:53:25.584Z,11.23
2019-03-09T06:55:57.960Z,10.27
2019-03-09T06:58:30.322Z,9.56
2019-03-09T07:01:05.866Z,9.00
2019-03-09T07:03:38.249Z,8.64
2019-03-09T07:06:10.561Z,11.54
2019-03-09T07:08:42.494Z,12.10
2019-03-09T07:11:14.856Z,10.84
2019-03-09T07:13:52.882Z,9.92
2019-03-09T07:16:21.227Z,9.39
2019-03-09T07:18:53.599Z,8.96
2019-03-09T07:21:25.983Z,10.14
2019-03-09T07:23:57.924Z,12.39
2019-03-09T07:26:30.330Z,11.25
2019-03-09T07:29:02.676Z,10.46
2019-03-09T07:31:35.058Z,9.87
2019-03-09T07:34:22.658Z,9.45
2019-03-09T07:36:55.051Z,9.27
2019-03-09T07:39:27.427Z,9.10
2019-03-09T07:41:59.802Z,11.23
2019-03-09T07:44:32.191Z,11.56
2019-03-09T07:47:04.586Z,10.50
2019-03-09T07:49:36.916Z,10.04
2019-03-09T07:52:32.731Z,9.69
2019-03-09T07:55:07.064Z,9.38
2019-03-09T07:57:38.983Z,9.19
2019-03-09T08:00:18.143Z,9.00
2019-03-09T08:02:50.408Z,8.82
2019-03-09T08:05:23.294Z,8.68
2019-03-09T08:07:55.576Z,9.42
2019-03-09T08:10:31.936Z,11.46
2019-03-09T08:13:05.448Z,10.63
2019-03-09T08:15:37.807Z,9.90
2019-03-09T08:18:10.171Z,9.46
2019-03-09T08:20:42.150Z,9.19
2019-03-09T08:23:14.060Z,8.92
2019-03-09T08:25:46.474Z,8.86
2019-03-09T08:28:19.404Z,11.57
2019-03-09T08:30:51.734Z,11.08
2019-03-09T08:33:24.112Z,10.25
2019-03-09T08:35:56.481Z,9.74
2019-03-09T08:38:28.861Z,9.30
2019-03-09T08:41:01.740Z,11.02
2019-03-09T08:43:34.214Z,12.24
2019-03-09T08:46:06.570Z,11.22
2019-03-09T08:48:38.942Z,10.31
2019-03-09T08:51:11.323Z,9.80
2019-03-09T08:53:43.703Z,10.46
2019-03-09T08:56:15.721Z,11.93
2019-03-09T08:58:48.019Z,11.09
2019-03-09T09:01:20.405Z,10.24
2019-03-09T09:03:52.826Z,10.10
2019-03-09T09:06:25.258Z,12.80
2019-03-09T09:08:57.617Z,11.91
2019-03-09T09:11:29.568Z,10.87
2019-03-09T09:14:01.948Z,10.14
2019-03-09T09:16:34.321Z,11.36
2019-03-09T09:19:06.683Z,12.33
2019-03-09T09:21:39.063Z,11.38
2019-03-09T09:24:11.442Z,10.57
2019-03-09T09:26:43.807Z,10.60
2019-03-09T09:29:16.186Z,12.65
2019-03-09T09:31:48.555Z,11.32
2019-03-09T09:34:20.487Z,10.39
2019-03-09T09:36:52.888Z,11.74
2019-03-09T09:39:25.258Z,12.55
2019-03-09T09:41:59.613Z,11.25
2019-03-09T09:44:33.181Z,10.43
2019-03-09T10:01:28.576Z,11.57
2019-03-09T10:04:00.941Z,10.40
2019-03-09T10:06:32.963Z,11.26
2019-03-09T10:09:07.037Z,12.16
2019-03-09T10:11:40.521Z,11.08
2019-03-09T10:14:12.915Z,10.50
2019-03-09T10:16:45.273Z,12.66
2019-03-09T10:19:17.230Z,11.61
2019-03-09T10:21:49.607Z,10.50
2019-03-09T10:24:21.980Z,11.60
2019-03-09T10:26:54.240Z,12.26
2019-03-09T10:29:26.621Z,11.11
2019-03-09T10:31:58.993Z,10.60
2019-03-09T10:34:31.355Z,12.82
2019-03-09T10:37:03.289Z,11.93
2019-03-09T10:39:35.582Z,10.63
2019-03-09T10:42:07.970Z,10.56
2019-03-09T10:44:40.330Z,13.35
2019-03-09T10:47:12.712Z,13.03
2019-03-09T10:49:45.079Z,11.58
2019-03-09T10:52:17.767Z,10.67
2019-03-09T10:54:50.121Z,13.48
2019-03-09T10:57:22.508Z,13.20
2019-03-09T10:59:54.875Z,12.00
2019-03-09T11:02:27.150Z,11.22
2019-03-09T11:04:59.095Z,13.16
2019-03-09T11:07:31.373Z,13.03
2019-03-09T11:10:07.335Z,12.00
2019-03-09T11:12:39.708Z,11.36
2019-03-09T11:15:12.077Z,13.77
2019-03-09T11:17:45.374Z,14.12
2019-03-09T11:20:20.186Z,12.84
2019-03-09T11:22:53.492Z,11.85
2019-03-09T11:25:25.868Z,12.39
2019-03-09T11:28:15.136Z,13.68
2019-03-09T11:30:47.532Z,12.66
2019-03-09T11:33:19.984Z,11.47
2019-03-09T11:35:52.346Z,13.18
2019-03-09T11:38:24.616Z,14.31
2019-03-09T11:40:58.556Z,13.06
2019-03-09T11:43:30.137Z,12.22
2019-03-09T11:46:02.455Z,11.64
2019-03-09T11:48:34.828Z,14.15
2019-03-09T11:51:07.307Z,13.70
2019-03-09T11:53:39.666Z,12.78
2019-03-09T11:56:12.048Z,12.20
2019-03-09T11:58:44.422Z,11.89
2019-03-09T12:01:16.778Z,14.43
2019-03-09T12:03:49.159Z,14.14
2019-03-09T12:06:21.535Z,13.52
2019-03-09T12:08:53.472Z,13.13
2019-03-09T12:11:25.435Z,12.78
2019-03-09T12:13:57.824Z,12.68
2019-03-09T12:16:30.199Z,12.71
2019-03-09T12:19:02.137Z,12.79
2019-03-09T12:21:34.538Z,12.95
2019-03-09T12:24:16.089Z,13.07
2019-03-09T12:26:40.920Z,13.38
2019-03-09T12:29:13.284Z,13.77
2019-03-09T12:31:46.066Z,14.11
2019-03-09T12:34:18.436Z,14.40
2019-03-09T12:36:50.814Z,14.35
2019-03-09T12:39:23.187Z,14.22
2019-03-09T12:41:55.559Z,14.17
2019-03-09T12:44:27.485Z,13.96
2019-03-09T12:46:59.888Z,13.83
2019-03-09T12:49:32.669Z,13.75
2019-03-09T12:52:05.043Z,13.76
2019-03-09T12:54:37.417Z,13.77
2019-03-09T12:57:09.392Z,13.76
2019-03-09T12:59:42.984Z,13.75
2019-03-09T13:02:15.355Z,13.80
2019-03-09T13:04:47.733Z,14.11
2019-03-09T13:07:19.698Z,14.22
2019-03-09T13:09:52.066Z,14.14
2019-03-09T13:12:24.429Z,14.12
2019-03-09T13:14:56.809Z,14.28
2019-03-09T13:17:29.230Z,14.40
2019-03-09T13:20:01.583Z,14.53
2019-03-09T13:22:35.314Z,14.90
2019-03-09T13:25:08.552Z,15.28
2019-03-09T13:27:41.937Z,15.70
2019-03-09T13:30:23.426Z,16.09
2019-03-09T13:32:55.796Z,16.59
2019-03-09T13:35:28.276Z,16.93
2019-03-09T13:38:00.961Z,17.13
2019-03-09T13:40:33.319Z,17.32
2019-03-09T13:43:05.710Z,17.42
2019-03-09T13:45:38.066Z,17.56
2019-03-09T13:48:10.443Z,17.55
2019-03-09T13:50:42.819Z,17.58
2019-03-09T13:53:15.284Z,17.66
2019-03-09T13:55:47.657Z,17.72
2019-03-09T13:58:19.634Z,17.74
2019-03-09T14:00:51.987Z,17.83
2019-03-09T14:03:24.034Z,17.84
2019-03-09T14:05:56.329Z,17.87
2019-03-09T14:08:28.286Z,17.66
2019-03-09T14:11:00.655Z,17.31
2019-03-09T14:13:33.040Z,17.06
2019-03-09T14:16:05.406Z,16.66
2019-03-09T14:18:37.772Z,16.31
2019-03-09T14:21:10.202Z,15.89
2019-03-09T14:23:42.641Z,15.64
2019-03-09T14:26:14.993Z,15.33
2019-03-09T14:28:47.362Z,14.94
2019-03-09T14:31:19.297Z,14.58
2019-03-09T14:33:51.914Z,14.27
2019-03-09T14:36:24.277Z,13.98
2019-03-09T14:38:56.656Z,13.76
2019-03-09T14:41:29.023Z,13.56
2019-03-09T14:44:01.389Z,13.39
2019-03-09T14:46:33.668Z,13.23
2019-03-09T14:49:07.050Z,13.09
2019-03-09T14:51:39.435Z,12.98
2019-03-09T14:54:11.815Z,12.83
2019-03-09T14:56:44.170Z,12.74
2019-03-09T14:59:16.387Z,12.64
2019-03-09T15:01:48.721Z,12.54
2019-03-09T15:04:21.083Z,12.50
2019-03-09T15:06:53.554Z,12.65
2019-03-09T15:09:25.929Z,12.84
2019-03-09T15:11:58.370Z,13.09
2019-03-09T15:14:30.646Z,13.28
2019-03-09T15:17:03.887Z,13.38
2019-03-09T15:19:36.244Z,13.39
2019-03-09T15:22:08.645Z,13.31
2019-03-09T15:24:41.096Z,13.16
2019-03-09T15:27:13.026Z,12.96
2019-03-09T15:29:45.428Z,12.80
2019-03-09T15:32:17.349Z,12.61
2019-03-09T15:34:49.366Z,12.45
2019-03-09T15:37:21.712Z,12.27
2019-03-09T15:39:54.095Z,12.12
2019-03-09T15:42:27.892Z,11.98
2019-03-09T15:45:00.330Z,11.86
2019-03-09T15:47:32.749Z,11.78
2019-03-09T15:50:07.873Z,11.70
2019-03-09T15:52:39.808Z,11.57
2019-03-09T15:55:12.925Z,11.50
2019-03-09T15:57:45.302Z,11.42
2019-03-09T16:00:25.712Z,11.32
2019-03-09T16:02:58.036Z,11.22
2019-03-09T16:05:30.403Z,11.11
2019-03-09T16:08:02.786Z,11.01
2019-03-09T16:10:35.157Z,10.91
2019-03-09T16:13:07.310Z,10.83
2019-03-09T16:15:39.695Z,10.74
2019-03-09T16:18:11.628Z,10.66
2019-03-09T16:20:44.024Z,10.55
2019-03-09T16:23:16.403Z,10.47
2019-03-09T16:25:48.862Z,10.38
2019-03-09T16:28:21.236Z,10.32
2019-03-09T16:30:53.927Z,10.24
2019-03-09T16:33:26.297Z,10.20
2019-03-09T16:35:58.674Z,10.12
2019-03-09T16:38:31.131Z,10.04
2019-03-09T16:41:03.514Z,10.00
2019-03-09T16:43:35.877Z,9.96
2019-03-09T16:46:08.252Z,9.92
2019-03-09T16:48:40.630Z,9.87
2019-03-09T16:51:13.001Z,9.83
2019-03-09T16:53:45.360Z,9.80
2019-03-09T16:56:17.745Z,9.76
2019-03-09T16:58:50.107Z,9.72
2019-03-09T17:01:22.797Z,9.65
2019-03-09T17:03:55.161Z,10.81
2019-03-09T17:06:28.230Z,13.27
2019-03-09T17:09:01.543Z,12.40
2019-03-09T17:11:35.451Z,11.38
2019-03-09T17:14:07.368Z,10.66
2019-03-09T17:16:42.284Z,10.17
2019-03-09T17:19:15.849Z,10.77
2019-03-09T17:21:48.228Z,14.15
2019-03-09T17:24:20.585Z,13.69
2019-03-09T17:26:54.392Z,12.30
2019-03-09T17:29:26.772Z,11.35
2019-03-09T17:31:59.137Z,10.63
2019-03-09T17:34:31.508Z,10.11
2019-03-09T17:37:03.508Z,9.65
2019-03-09T17:39:35.806Z,9.26
2019-03-09T17:42:08.213Z,10.97
2019-03-09T17:44:40.136Z,14.07
2019-03-09T17:47:12.571Z,13.24
2019-03-09T17:49:44.926Z,11.96
2019-03-09T17:52:17.293Z,11.02
2019-03-09T17:54:49.671Z,10.35
2019-03-09T17:57:22.041Z,9.87
2019-03-09T17:59:54.649Z,9.41
2019-03-09T18:02:26.985Z,9.06
2019-03-09T18:04:59.367Z,10.87
2019-03-09T18:07:31.984Z,13.13
2019-03-09T18:10:06.158Z,12.12
2019-03-09T18:12:40.465Z,11.09
2019-03-09T18:15:13.155Z,10.33
2019-03-09T18:17:46.668Z,9.96
2019-03-09T18:20:18.802Z,13.27
2019-03-09T18:22:51.629Z,13.70
2019-03-09T18:25:25.984Z,12.50
2019-03-09T18:27:58.400Z,11.49
2019-03-09T18:30:30.765Z,10.74
2019-03-09T18:33:03.182Z,10.27
2019-03-09T18:35:35.863Z,12.52
2019-03-09T18:38:08.302Z,12.39
2019-03-09T18:40:40.667Z,11.39
2019-03-09T18:43:13.025Z,10.74
2019-03-09T18:45:45.401Z,10.70
2019-03-09T18:48:17.782Z,13.93
2019-03-09T18:50:50.248Z,13.92
2019-03-09T18:53:22.742Z,12.61
2019-03-09T18:55:59.146Z,11.72
2019-03-09T18:58:28.814Z,11.01
2019-03-09T19:01:02.581Z,10.50
2019-03-09T19:03:35.301Z,10.77
2019-03-09T19:06:07.659Z,13.63
2019-03-09T19:08:40.477Z,13.17
2019-03-09T19:11:12.378Z,11.86
2019-03-09T19:13:44.777Z,10.95
2019-03-09T19:16:17.152Z,10.74
2019-03-09T19:18:49.509Z,13.11
2019-03-09T19:21:21.884Z,12.34
2019-03-09T19:23:54.253Z,11.25
2019-03-09T19:26:26.641Z,10.52
2019-03-09T19:31:57.963Z,13.20
2019-03-09T19:34:34.778Z,12.02
2019-03-09T19:37:07.244Z,11.05
2019-03-09T19:39:39.618Z,10.45
2019-03-09T19:42:11.998Z,12.39
2019-03-09T19:44:44.376Z,13.63
2019-03-09T19:47:16.747Z,12.43
2019-03-09T19:49:49.104Z,11.45
2019-03-09T19:52:21.024Z,10.73
2019-03-09T19:54:53.436Z,10.20
2019-03-09T20:00:27.477Z,13.56
2019-03-09T20:02:59.846Z,12.06
2019-03-09T20:05:32.218Z,11.06
2019-03-09T20:11:19.800Z,12.76
2019-03-09T20:13:54.824Z,12.10
2019-03-09T20:19:38.783Z,10.81
2019-03-09T20:26:59.095Z,11.08
2019-03-09T20:29:31.454Z,10.27
2019-03-09T20:32:03.452Z,10.21
2019-03-09T20:34:44.199Z,13.35
2019-03-09T20:37:17.475Z,13.13
2019-03-09T20:39:53.707Z,11.86
2019-03-09T20:43:08.120Z,10.86
2019-03-09T20:45:48.979Z,10.01
2019-03-09T20:48:21.338Z,9.59
2019-03-09T20:50:53.783Z,12.43
2019-03-09T20:53:26.389Z,14.80
2019-03-09T20:55:58.760Z,13.59
2019-03-09T20:58:31.133Z,12.22
2019-03-09T21:01:03.518Z,11.25
2019-03-09T21:03:35.445Z,10.50
2019-03-09T21:06:07.861Z,9.90
2019-03-09T21:08:40.223Z,9.46
2019-03-09T21:11:12.595Z,11.38
2019-03-09T21:13:44.970Z,14.77
2019-03-09T21:16:17.350Z,13.84
2019-03-09T21:18:49.250Z,12.36
2019-03-09T21:21:22.090Z,11.30
2019-03-09T21:26:59.190Z,9.85
2019-03-09T21:29:31.555Z,9.98
2019-03-09T21:32:03.955Z,13.41
2019-03-09T21:37:30.066Z,12.05
2019-03-09T21:40:01.995Z,11.05
2019-03-09T21:42:34.400Z,10.31
2019-03-09T21:45:11.092Z,12.02
2019-03-09T21:47:43.387Z,14.80
2019-03-09T21:50:17.508Z,13.52
2019-03-09T21:52:49.938Z,12.09
2019-03-09T21:55:22.312Z,11.16
2019-03-09T21:57:54.684Z,10.50
2019-03-09T22:00:34.518Z,12.30
2019-03-09T22:03:08.747Z,14.42
2019-03-09T22:08:36.316Z,11.49
2019-03-09T22:11:08.684Z,10.74
2019-03-09T22:13:41.064Z,12.19
2019-03-09T22:16:13.427Z,13.18
2019-03-09T22:18:45.807Z,12.17
2019-03-09T22:21:18.174Z,11.14
2019-03-09T22:23:50.551Z,10.76
2019-03-09T22:26:24.066Z,13.56
2019-03-09T22:28:56.414Z,13.02
2019-03-09T22:31:28.799Z,11.75
2019-03-09T22:34:06.031Z,10.87
2019-03-09T22:37:08.689Z,12.64
2019-03-09T22:40:00.446Z,13.72
2019-03-09T22:42:42.014Z,12.00
2019-03-09T22:45:27.432Z,10.91
2019-03-09T22:48:00.734Z,13.06
2019-03-09T22:50:33.138Z,13.13
2019-03-09T22:53:05.494Z,11.77
2019-03-09T22:55:37.873Z,10.86
2019-03-09T22:58:10.228Z,12.24
2019-03-09T23:00:43.831Z,13.06
2019-03-09T23:03:17.993Z,11.72
2019-03-09T23:05:50.316Z,10.70
2019-03-09T23:08:22.698Z,12.59
2019-03-09T23:10:55.068Z,12.51
2019-03-09T23:13:28.453Z,11.38
2019-03-09T23:16:00.826Z,10.80
2019-03-09T23:18:33.981Z,13.39
2019-03-09T23:21:06.294Z,12.89
2019-03-09T23:23:38.658Z,11.43
2019-03-09T23:26:11.041Z,10.38
2019-03-09T23:28:48.147Z,12.33
2019-03-09T23:31:20.060Z,11.61
2019-03-09T23:33:52.449Z,10.47
2019-03-09T23:36:24.829Z,9.59
2019-03-09T23:38:57.198Z,11.47
2019-03-09T23:41:29.574Z,11.33
2019-03-09T23:44:01.935Z,10.27
2019-03-09T23:46:34.316Z,9.34
2019-03-09T23:49:06.687Z,8.69
2019-03-09T23:51:38.961Z,11.22
2019-03-09T23:54:11.329Z,11.06
2019-03-09T23:56:43.590Z,9.70
2019-03-09T23:59:15.967Z,8.91
